createdAt,value
2023-04-29T00:00:53.472Z,39.22
2023-04-29T00:03:20.305Z,38.45
2023-04-29T00:05:47.273Z,38.88
2023-04-29T00:08:14.978Z,40.13
2023-04-29T00:10:41.725Z,39.35
2023-04-29T00:13:08.381Z,38.30
2023-04-29T00:15:34.977Z,36.58
2023-04-29T00:18:01.708Z,37.47
2023-04-29T00:20:28.360Z,36.25
2023-04-29T00:22:54.999Z,37.55
2023-04-29T00:25:21.663Z,35.50
2023-04-29T00:27:48.280Z,38.28
2023-04-29T00:30:15.002Z,35.53
2023-04-29T00:32:41.735Z,36.80
2023-04-29T00:35:08.968Z,36.25
2023-04-29T00:37:35.542Z,34.50
2023-04-29T00:40:02.518Z,31.10
2023-04-29T00:42:29.485Z,33.95
2023-04-29T00:44:56.350Z,32.40
2023-04-29T00:47:23.300Z,34.20
2023-04-29T00:49:50.401Z,34.00
2023-04-29T00:52:17.766Z,32.92
2023-04-29T00:54:44.556Z,35.08
2023-04-29T00:57:11.269Z,35.00
2023-04-29T00:59:37.933Z,32.17
2023-04-29T01:02:04.894Z,34.03
2023-04-29T01:04:31.702Z,35.70
2023-04-29T01:07:13.423Z,35.55
2023-04-29T01:10:15.738Z,33.17
2023-04-29T01:12:47.173Z,36.63
2023-04-29T01:15:39.915Z,33.72
2023-04-29T01:18:12.872Z,31.77
2023-04-29T01:20:39.991Z,32.70
2023-04-29T01:23:06.676Z,31.77
2023-04-29T01:25:33.510Z,32.55
2023-04-29T01:28:50.802Z,30.90
2023-04-29T01:31:41.486Z,30.48
2023-04-29T01:34:14.914Z,30.52
2023-04-29T01:37:14.048Z,30.07
2023-04-29T01:40:07.487Z,28.85
2023-04-29T01:43:03.272Z,29.83
2023-04-29T01:45:34.257Z,31.20
2023-04-29T01:48:01.888Z,30.52
2023-04-29T01:50:30.462Z,30.08
2023-04-29T01:53:04.452Z,31.00
2023-04-29T01:55:31.334Z,30.30
2023-04-29T01:58:14.245Z,30.45
2023-04-29T02:00:55.861Z,31.17
2023-04-29T02:03:23.042Z,32.20
2023-04-29T02:05:54.033Z,32.70
2023-04-29T02:08:20.706Z,33.58
2023-04-29T02:10:57.713Z,33.03
2023-04-29T02:13:37.050Z,29.95
2023-04-29T02:16:11.225Z,30.42
2023-04-29T02:18:42.475Z,32.33
2023-04-29T02:21:09.473Z,33.05
2023-04-29T02:23:36.614Z,32.38
2023-04-29T02:26:06.982Z,30.60
2023-04-29T02:28:35.046Z,31.63
2023-04-29T02:31:02.143Z,33.63
2023-04-29T02:33:28.854Z,31.17
2023-04-29T02:35:55.775Z,30.08
2023-04-29T02:38:22.764Z,28.92
2023-04-29T02:40:50.353Z,28.10
2023-04-29T02:43:17.312Z,28.95
2023-04-29T02:45:45.418Z,28.05
2023-04-29T02:48:12.292Z,27.90
2023-04-29T02:50:39.710Z,28.65
2023-04-29T02:53:07.188Z,28.77
2023-04-29T02:55:34.217Z,27.48
2023-04-29T02:58:06.661Z,26.35
2023-04-29T03:00:33.332Z,27.38
2023-04-29T03:03:00.399Z,29.00
2023-04-29T03:05:27.323Z,26.05
2023-04-29T03:07:54.651Z,27.45
2023-04-29T03:10:21.779Z,27.35
2023-04-29T03:12:48.473Z,27.52
2023-04-29T03:15:15.744Z,25.63
2023-04-29T03:17:43.143Z,25.90
2023-04-29T03:20:10.949Z,26.10
2023-04-29T03:22:37.677Z,26.80
2023-04-29T03:25:05.142Z,26.63
2023-04-29T03:27:32.183Z,24.80
2023-04-29T03:29:59.172Z,25.08
2023-04-29T03:32:26.603Z,25.13
2023-04-29T03:34:53.266Z,24.13
2023-04-29T03:37:46.118Z,23.48
2023-04-29T03:40:26.931Z,21.85
2023-04-29T03:42:53.548Z,23.95
2023-04-29T03:45:20.491Z,24.35
2023-04-29T03:47:47.211Z,25.02
2023-04-29T03:50:14.118Z,24.77
2023-04-29T03:52:41.372Z,24.30
2023-04-29T03:55:15.919Z,24.23
2023-04-29T03:57:44.022Z,23.75
2023-04-29T04:00:12.302Z,23.08
2023-04-29T04:02:48.045Z,23.98
2023-04-29T04:05:15.480Z,23.00
2023-04-29T04:07:48.189Z,25.58
2023-04-29T04:10:45.953Z,23.73
2023-04-29T04:13:27.248Z,23.48
2023-04-29T04:15:53.947Z,23.48
2023-04-29T04:18:20.767Z,25.38
2023-04-29T04:20:47.707Z,23.90
2023-04-29T04:23:14.717Z,23.75
2023-04-29T04:25:47.057Z,25.98
2023-04-29T04:28:40.299Z,25.08
2023-04-29T04:31:14.625Z,25.20
2023-04-29T04:33:41.888Z,25.25
2023-04-29T04:36:08.963Z,24.20
2023-04-29T04:38:36.024Z,25.27
2023-04-29T04:41:08.194Z,24.00
2023-04-29T04:43:37.113Z,26.40
2023-04-29T04:46:15.127Z,26.20
2023-04-29T04:48:52.356Z,25.25
2023-04-29T04:51:20.825Z,25.83
2023-04-29T04:53:47.641Z,25.75
2023-04-29T04:56:22.931Z,26.58
2023-04-29T04:58:50.291Z,24.85
2023-04-29T05:01:16.974Z,26.10
2023-04-29T05:03:44.065Z,24.33
2023-04-29T05:06:11.084Z,24.70
2023-04-29T05:08:40.357Z,23.20
2023-04-29T05:11:18.707Z,25.63
2023-04-29T05:13:51.737Z,24.60
2023-04-29T05:16:18.710Z,23.77
2023-04-29T05:18:47.320Z,23.60
2023-04-29T05:21:17.586Z,22.65
2023-04-29T05:23:44.924Z,22.58
2023-04-29T05:26:12.251Z,22.00
2023-04-29T05:28:39.080Z,22.05
2023-04-29T05:31:07.459Z,21.85
2023-04-29T05:33:34.219Z,20.45
2023-04-29T05:36:01.308Z,21.52
2023-04-29T05:38:29.239Z,19.95
2023-04-29T05:41:07.728Z,19.52
2023-04-29T05:43:45.271Z,19.77
2023-04-29T05:46:14.235Z,18.60
2023-04-29T05:48:40.874Z,19.65
2023-04-29T05:51:07.597Z,19.63
2023-04-29T05:53:35.836Z,18.63
2023-04-29T05:56:06.557Z,19.20
2023-04-29T05:58:33.282Z,18.67
2023-04-29T06:01:00.273Z,18.45
2023-04-29T06:03:28.043Z,18.17
2023-04-29T06:06:13.957Z,18.48
2023-04-29T06:08:53.707Z,18.15
2023-04-29T06:11:24.860Z,17.95
2023-04-29T06:13:51.529Z,17.80
2023-04-29T06:16:18.418Z,17.98
2023-04-29T06:18:45.157Z,17.15
2023-04-29T06:21:13.911Z,17.13
2023-04-29T06:23:40.622Z,16.65
2023-04-29T06:26:15.181Z,15.90
2023-04-29T06:28:42.177Z,16.05
2023-04-29T06:31:09.416Z,16.83
2023-04-29T06:33:36.257Z,15.75
2023-04-29T06:36:02.929Z,14.80
2023-04-29T06:38:44.693Z,15.02
2023-04-29T06:41:30.620Z,14.85
2023-04-29T06:44:12.074Z,15.13
2023-04-29T06:47:11.030Z,14.52
2023-04-29T06:49:58.030Z,14.95
2023-04-29T06:52:24.957Z,13.77
2023-04-29T06:54:51.661Z,14.63
2023-04-29T06:57:19.049Z,13.75
2023-04-29T06:59:46.295Z,12.70
2023-04-29T07:02:13.626Z,13.20
2023-04-29T07:04:40.257Z,14.30
2023-04-29T07:07:07.175Z,12.75
2023-04-29T07:09:34.465Z,14.55
2023-04-29T07:12:02.661Z,13.40
2023-04-29T07:14:29.363Z,12.75
2023-04-29T07:16:56.093Z,12.52
2023-04-29T07:19:23.129Z,12.50
2023-04-29T07:21:49.812Z,12.80
2023-04-29T07:24:16.699Z,12.95
2023-04-29T07:26:45.737Z,11.85
2023-04-29T07:29:15.207Z,11.40
2023-04-29T07:31:42.334Z,11.00
2023-04-29T07:34:08.994Z,10.20
2023-04-29T07:36:35.657Z,11.45
2023-04-29T07:39:02.661Z,11.00
2023-04-29T07:41:29.405Z,11.25
2023-04-29T07:43:56.215Z,10.43
2023-04-29T07:46:23.488Z,10.73
2023-04-29T07:48:50.619Z,10.65
2023-04-29T07:51:17.264Z,11.40
2023-04-29T07:53:43.925Z,11.05
2023-04-29T07:56:10.752Z,10.57
2023-04-29T07:58:37.718Z,10.32
2023-04-29T08:01:11.934Z,10.43
2023-04-29T08:03:41.614Z,10.15
2023-04-29T08:06:10.065Z,9.25
2023-04-29T08:08:36.848Z,9.90
2023-04-29T08:11:03.618Z,9.30
2023-04-29T08:13:30.314Z,9.38
2023-04-29T08:15:57.008Z,8.32
2023-04-29T08:18:23.652Z,9.10
2023-04-29T08:20:50.385Z,8.80
2023-04-29T08:23:17.117Z,8.60
2023-04-29T08:25:44.085Z,8.15
2023-04-29T08:28:11.410Z,8.98
2023-04-29T08:30:40.127Z,8.65
2023-04-29T08:33:07.154Z,7.93
2023-04-29T08:35:34.043Z,7.88
2023-04-29T08:38:00.775Z,8.00
2023-04-29T08:40:28.252Z,7.93
2023-04-29T08:42:55.327Z,8.45
2023-04-29T08:45:23.236Z,8.23
2023-04-29T08:47:51.322Z,7.55
2023-04-29T08:50:18.544Z,8.32
2023-04-29T08:52:45.370Z,7.85
2023-04-29T08:55:11.950Z,8.00
2023-04-29T08:57:40.012Z,7.57
2023-04-29T09:00:10.944Z,8.02
2023-04-29T09:02:46.373Z,8.30
2023-04-29T09:05:13.214Z,8.20
2023-04-29T09:07:41.146Z,7.68
2023-04-29T09:10:08.391Z,8.60
2023-04-29T09:12:36.123Z,7.75
2023-04-29T09:15:03.478Z,7.95
2023-04-29T09:17:47.732Z,8.10
2023-04-29T09:20:20.172Z,7.65
2023-04-29T09:22:59.974Z,7.78
2023-04-29T09:25:27.390Z,8.45
2023-04-29T09:27:55.463Z,8.40
2023-04-29T09:30:23.133Z,7.18
2023-04-29T09:33:09.263Z,7.90
2023-04-29T09:35:36.354Z,7.53
2023-04-29T09:38:14.418Z,7.43
2023-04-29T09:40:57.735Z,7.88
2023-04-29T09:43:26.172Z,8.27
2023-04-29T09:45:52.820Z,6.72
2023-04-29T09:48:19.546Z,7.55
2023-04-29T09:51:01.588Z,6.68
2023-04-29T09:53:30.268Z,6.93
2023-04-29T09:56:01.971Z,5.93
2023-04-29T09:58:38.998Z,6.28
2023-04-29T10:01:06.698Z,6.22
2023-04-29T10:03:38.165Z,5.78
2023-04-29T10:06:07.206Z,6.07
2023-04-29T10:08:34.613Z,6.25
2023-04-29T10:11:03.479Z,6.30
2023-04-29T10:13:30.856Z,5.65
2023-04-29T10:16:11.104Z,5.70
2023-04-29T10:18:40.741Z,5.78
2023-04-29T10:21:09.582Z,5.47
2023-04-29T10:23:37.665Z,5.55
2023-04-29T10:26:05.709Z,5.25
2023-04-29T10:28:32.935Z,5.63
2023-04-29T10:31:05.490Z,5.50
2023-04-29T10:33:35.204Z,5.88
2023-04-29T10:36:03.273Z,5.47
2023-04-29T10:38:35.880Z,5.30
2023-04-29T10:41:04.458Z,5.63
2023-04-29T10:43:31.939Z,6.28
2023-04-29T10:46:34.157Z,6.32
2023-04-29T10:49:03.282Z,6.05
2023-04-29T10:51:34.830Z,6.10
2023-04-29T10:54:11.090Z,5.88
2023-04-29T10:56:49.372Z,6.10
2023-04-29T10:59:20.319Z,5.57
2023-04-29T11:01:53.093Z,5.72
2023-04-29T11:04:21.304Z,5.93
2023-04-29T11:06:59.074Z,5.93
2023-04-29T11:09:30.401Z,4.93
2023-04-29T11:12:01.623Z,5.78
2023-04-29T11:14:41.565Z,5.15
2023-04-29T11:17:14.822Z,4.53
2023-04-29T11:19:42.342Z,4.70
2023-04-29T11:22:18.192Z,4.35
2023-04-29T11:24:53.040Z,5.20
2023-04-29T11:27:22.910Z,5.40
2023-04-29T11:29:50.331Z,5.30
2023-04-29T11:32:21.492Z,4.40
2023-04-29T11:34:48.247Z,4.50
2023-04-29T11:37:25.899Z,4.70
2023-04-29T11:39:59.192Z,5.00
2023-04-29T11:42:25.812Z,4.50
2023-04-29T11:44:54.425Z,4.45
2023-04-29T11:47:22.051Z,4.43
2023-04-29T11:49:48.818Z,3.97
2023-04-29T11:52:16.461Z,4.68
2023-04-29T11:54:43.202Z,5.00
2023-04-29T11:57:10.903Z,4.13
2023-04-29T11:59:37.563Z,4.97
2023-04-29T12:02:04.174Z,4.25
2023-04-29T12:04:30.968Z,4.72
2023-04-29T12:06:58.841Z,4.57
2023-04-29T12:09:25.653Z,3.97
2023-04-29T12:11:52.888Z,4.50
2023-04-29T12:14:20.392Z,4.53
2023-04-29T12:16:47.165Z,4.45
2023-04-29T12:19:13.900Z,4.55
2023-04-29T12:21:49.011Z,3.67
2023-04-29T12:24:16.235Z,4.10
2023-04-29T12:26:45.508Z,4.28
2023-04-29T12:29:13.214Z,3.80
2023-04-29T12:31:39.962Z,3.95
2023-04-29T12:34:09.867Z,3.72
2023-04-29T12:36:37.737Z,3.33
2023-04-29T12:39:07.183Z,3.30
2023-04-29T12:41:37.751Z,3.65
2023-04-29T12:44:06.227Z,3.55
2023-04-29T12:46:41.252Z,4.03
2023-04-29T12:49:08.402Z,3.42
2023-04-29T12:51:36.642Z,2.88
2023-04-29T12:54:04.614Z,2.90
2023-04-29T12:56:31.862Z,3.50
2023-04-29T12:59:24.915Z,3.35
2023-04-29T13:01:51.515Z,3.43
2023-04-29T13:04:18.219Z,2.95
2023-04-29T13:06:45.008Z,2.80
2023-04-29T13:09:17.904Z,2.97
2023-04-29T13:11:46.104Z,3.17
2023-04-29T13:14:12.693Z,2.70
2023-04-29T13:16:39.368Z,2.50
2023-04-29T13:19:21.587Z,2.50
2023-04-29T13:21:53.260Z,2.22
2023-04-29T13:24:20.990Z,2.22
2023-04-29T13:26:50.184Z,2.33
2023-04-29T13:29:18.362Z,2.55
2023-04-29T13:31:45.076Z,3.00
2023-04-29T13:34:11.858Z,3.00
2023-04-29T13:36:38.670Z,2.50
2023-04-29T13:39:05.465Z,2.55
2023-04-29T13:41:34.997Z,2.80
2023-04-29T13:44:02.467Z,2.45
2023-04-29T13:46:31.472Z,2.53
2023-04-29T13:49:20.704Z,2.30
2023-04-29T13:52:30.615Z,2.50
2023-04-29T13:59:45.567Z,2.35
2023-04-29T14:02:24.895Z,2.30
2023-04-29T14:04:53.466Z,2.95
2023-04-29T14:07:20.933Z,2.22
2023-04-29T14:09:49.289Z,2.15
2023-04-29T14:12:15.898Z,1.88
2023-04-29T14:14:42.553Z,1.95
2023-04-29T14:17:09.424Z,1.70
2023-04-29T14:19:36.077Z,1.80
2023-04-29T14:22:02.749Z,1.80
2023-04-29T14:24:29.445Z,1.58
2023-04-29T14:26:56.148Z,1.40
2023-04-29T14:29:22.805Z,1.45
2023-04-29T14:31:49.520Z,1.70
2023-04-29T14:34:16.310Z,1.27
2023-04-29T14:36:44.299Z,1.38
2023-04-29T14:39:12.923Z,1.23
2023-04-29T14:41:39.807Z,1.05
2023-04-29T14:44:06.483Z,1.20
2023-04-29T14:46:33.102Z,1.45
2023-04-29T14:48:59.779Z,1.10
2023-04-29T14:51:27.377Z,1.08
2023-04-29T14:53:53.995Z,1.25
2023-04-29T14:56:20.629Z,2.08
2023-04-29T14:58:47.271Z,1.40
2023-04-29T15:01:13.894Z,1.83
2023-04-29T15:03:44.317Z,1.55
2023-04-29T15:06:12.054Z,1.65
2023-04-29T15:08:38.734Z,1.63
2023-04-29T15:11:05.556Z,1.83
2023-04-29T15:13:32.500Z,1.88
2023-04-29T15:15:59.347Z,1.92
2023-04-29T15:18:26.417Z,1.40
2023-04-29T15:20:53.808Z,1.83
2023-04-29T15:23:20.722Z,1.92
2023-04-29T15:25:47.459Z,2.22
2023-04-29T15:28:14.172Z,2.45
2023-04-29T15:30:40.912Z,2.90
2023-04-29T15:33:07.691Z,2.90
2023-04-29T15:35:34.635Z,2.90
2023-04-29T15:38:01.266Z,3.30
2023-04-29T15:40:27.915Z,3.42
2023-04-29T15:42:54.667Z,3.38
2023-04-29T15:45:21.350Z,4.00
2023-04-29T15:47:48.020Z,4.13
2023-04-29T15:50:14.649Z,4.00
2023-04-29T15:52:41.308Z,4.20
2023-04-29T15:55:08.165Z,4.35
2023-04-29T15:57:40.970Z,4.32
2023-04-29T16:00:08.765Z,4.68
2023-04-29T16:02:35.604Z,3.97
2023-04-29T16:05:02.329Z,4.43
2023-04-29T16:07:29.045Z,4.93
2023-04-29T16:09:55.937Z,4.60
2023-04-29T16:12:22.762Z,4.70
2023-04-29T16:14:50.203Z,3.95
2023-04-29T16:17:16.939Z,3.80
2023-04-29T16:19:43.654Z,3.65
2023-04-29T16:22:10.440Z,3.80
2023-04-29T16:24:37.053Z,3.47
2023-04-29T16:27:04.153Z,3.47
2023-04-29T16:29:30.717Z,3.75
2023-04-29T16:31:57.450Z,3.47
2023-04-29T16:34:24.259Z,3.47
2023-04-29T16:36:51.273Z,3.20
2023-04-29T16:39:17.862Z,3.13
2023-04-29T16:41:44.525Z,3.38
2023-04-29T16:44:11.849Z,3.40
2023-04-29T16:46:38.736Z,3.00
2023-04-29T16:49:05.955Z,3.10
2023-04-29T16:51:33.675Z,3.00
2023-04-29T16:54:00.562Z,2.78
2023-04-29T16:56:27.610Z,3.05
2023-04-29T16:58:54.405Z,2.95
2023-04-29T17:01:21.348Z,3.08
2023-04-29T17:03:48.250Z,3.00
2023-04-29T17:06:15.571Z,3.05
2023-04-29T17:08:43.083Z,2.95
2023-04-29T17:11:10.395Z,3.53
2023-04-29T17:13:37.029Z,4.50
2023-04-29T17:16:03.989Z,3.70
2023-04-29T17:18:30.715Z,3.58
2023-04-29T17:20:57.378Z,3.60
2023-04-29T17:23:24.078Z,3.67
2023-04-29T17:25:50.778Z,4.00
2023-04-29T17:28:17.478Z,4.30
2023-04-29T17:30:44.169Z,4.28
2023-04-29T17:33:12.564Z,4.22
2023-04-29T17:35:39.186Z,4.07
2023-04-29T17:38:05.815Z,4.20
2023-04-29T17:40:32.416Z,4.85
2023-04-29T17:42:59.231Z,4.40
2023-04-29T17:45:26.166Z,3.80
2023-04-29T17:47:53.065Z,3.92
2023-04-29T17:50:19.672Z,3.65
2023-04-29T17:52:46.537Z,3.30
2023-04-29T17:55:13.149Z,3.50
2023-04-29T17:57:40.862Z,2.95
2023-04-29T18:00:08.468Z,3.08
2023-04-29T18:02:35.184Z,3.33
2023-04-29T18:05:03.356Z,3.17
2023-04-29T18:07:30.119Z,3.08
2023-04-29T18:09:57.331Z,2.85
2023-04-29T18:12:24.921Z,2.80
2023-04-29T18:14:52.028Z,2.63
2023-04-29T18:17:19.386Z,2.97
2023-04-29T18:19:52.350Z,2.65
2023-04-29T18:22:19.307Z,3.53
2023-04-29T18:24:48.378Z,2.67
2023-04-29T18:27:15.058Z,3.17
2023-04-29T18:29:41.728Z,3.22
2023-04-29T18:32:08.463Z,3.50
2023-04-29T18:34:35.180Z,2.92
2023-04-29T18:37:01.959Z,3.17
2023-04-29T18:39:28.686Z,3.25
2023-04-29T18:41:55.982Z,3.20
2023-04-29T18:44:22.744Z,3.22
2023-04-29T18:46:49.406Z,3.33
2023-04-29T18:49:16.877Z,3.50
2023-04-29T18:51:46.848Z,3.22
2023-04-29T18:54:15.239Z,3.35
2023-04-29T18:56:44.031Z,2.92
2023-04-29T18:59:12.797Z,3.40
2023-04-29T19:01:39.503Z,3.97
2023-04-29T19:04:08.657Z,3.83
2023-04-29T19:06:36.744Z,3.10
2023-04-29T19:09:03.905Z,3.55
2023-04-29T19:11:30.526Z,3.17
2023-04-29T19:13:57.566Z,3.30
2023-04-29T19:16:24.584Z,3.00
2023-04-29T19:18:51.231Z,3.55
2023-04-29T19:21:18.299Z,3.10
2023-04-29T19:23:44.898Z,3.80
2023-04-29T19:26:11.624Z,3.17
2023-04-29T19:28:38.388Z,2.97
2023-04-29T19:31:05.257Z,3.17
2023-04-29T19:33:32.006Z,2.88
2023-04-29T19:35:58.636Z,2.42
2023-04-29T19:38:25.770Z,3.10
2023-04-29T19:40:55.621Z,2.75
2023-04-29T19:43:22.981Z,2.75
2023-04-29T19:45:49.664Z,2.90
2023-04-29T19:48:16.409Z,2.80
2023-04-29T19:50:43.407Z,3.15
2023-04-29T19:53:11.192Z,2.50
2023-04-29T19:55:39.392Z,2.92
2023-04-29T19:58:06.495Z,3.22
2023-04-29T20:00:33.673Z,4.47
2023-04-29T20:03:00.531Z,3.70
2023-04-29T20:05:28.446Z,3.30
2023-04-29T20:07:55.479Z,3.60
2023-04-29T20:10:22.388Z,3.67
2023-04-29T20:12:49.454Z,3.20
2023-04-29T20:15:16.443Z,3.30
2023-04-29T20:17:43.239Z,3.70
2023-04-29T20:20:10.551Z,3.67
2023-04-29T20:22:37.229Z,3.28
2023-04-29T20:25:04.442Z,3.60
2023-04-29T20:27:31.131Z,3.22
2023-04-29T20:29:57.805Z,3.70
2023-04-29T20:32:24.671Z,3.90
2023-04-29T20:34:51.888Z,3.70
2023-04-29T20:37:19.860Z,3.60
2023-04-29T20:39:47.272Z,4.20
2023-04-29T20:42:13.956Z,3.67
2023-04-29T20:44:40.949Z,3.58
2023-04-29T20:47:07.835Z,4.05
2023-04-29T20:49:34.511Z,4.22
2023-04-29T20:52:01.323Z,3.70
2023-04-29T20:54:27.961Z,4.78
2023-04-29T20:56:54.650Z,4.75
2023-04-29T20:59:21.413Z,3.97
2023-04-29T21:01:48.145Z,3.72
2023-04-29T21:04:15.256Z,3.97
2023-04-29T21:06:42.053Z,4.35
2023-04-29T21:09:11.471Z,4.10
2023-04-29T21:11:38.391Z,4.05
2023-04-29T21:14:05.023Z,3.78
2023-04-29T21:16:31.742Z,3.85
2023-04-29T21:18:58.475Z,4.35
2023-04-29T21:21:26.122Z,4.60
2023-04-29T21:23:52.896Z,4.32
2023-04-29T21:26:19.549Z,4.32
2023-04-29T21:28:46.409Z,3.85
2023-04-29T21:31:16.311Z,4.80
2023-04-29T21:33:46.460Z,4.63
2023-04-29T21:36:13.752Z,4.70
2023-04-29T21:38:42.671Z,4.20
2023-04-29T21:41:20.794Z,4.68
2023-04-29T21:43:48.597Z,4.93
2023-04-29T21:46:15.847Z,5.30
2023-04-29T21:48:42.706Z,5.05
2023-04-29T21:51:09.417Z,4.35
2023-04-29T21:53:37.195Z,4.70
2023-04-29T21:56:05.869Z,4.43
2023-04-29T21:58:32.664Z,5.00
2023-04-29T22:01:03.074Z,4.82
2023-04-29T22:03:30.603Z,4.93
2023-04-29T22:05:57.918Z,4.97
2023-04-29T22:08:24.596Z,4.78
2023-04-29T22:10:51.333Z,5.20
2023-04-29T22:13:18.032Z,4.80
2023-04-29T22:15:44.913Z,5.50
2023-04-29T22:18:11.824Z,4.80
2023-04-29T22:20:38.438Z,4.93
2023-04-29T22:23:05.131Z,4.68
2023-04-29T22:25:32.013Z,5.25
2023-04-29T22:27:58.697Z,4.75
2023-04-29T22:30:25.374Z,5.10
2023-04-29T22:32:52.045Z,4.88
2023-04-29T22:35:18.674Z,4.80
2023-04-29T22:37:45.481Z,5.43
2023-04-29T22:40:12.830Z,6.03
2023-04-29T22:42:41.868Z,5.47
2023-04-29T22:45:10.376Z,5.63
2023-04-29T22:47:38.292Z,5.22
2023-04-29T22:50:05.471Z,4.85
2023-04-29T22:52:32.757Z,5.00
2023-04-29T22:54:59.894Z,4.95
2023-04-29T22:57:26.481Z,5.15
2023-04-29T22:59:55.225Z,4.82
2023-04-29T23:02:29.568Z,4.80
2023-04-29T23:04:56.946Z,5.22
2023-04-29T23:07:24.100Z,5.38
2023-04-29T23:09:51.411Z,4.70
2023-04-29T23:12:18.687Z,5.35
2023-04-29T23:14:45.629Z,4.80
2023-04-29T23:17:12.347Z,4.63
2023-04-29T23:19:39.010Z,4.45
2023-04-29T23:22:08.430Z,4.43
2023-04-29T23:24:35.557Z,4.78
2023-04-29T23:27:03.428Z,4.93
2023-04-29T23:29:36.655Z,4.95
2023-04-29T23:32:03.345Z,5.50
2023-04-29T23:34:29.945Z,5.38
2023-04-29T23:36:56.815Z,5.70
2023-04-29T23:39:23.421Z,5.25
2023-04-29T23:41:50.034Z,5.82
2023-04-29T23:44:16.669Z,5.63
2023-04-29T23:46:43.770Z,5.15
2023-04-29T23:49:10.570Z,5.60
2023-04-29T23:51:37.538Z,5.35
2023-04-29T23:54:04.174Z,5.28
2023-04-29T23:56:32.906Z,5.57
2023-04-29T23:58:59.716Z,5.22
